sensor_id;sensor_type;location;lat;lon;timestamp;pressure;altitude;pressure_sealevel;temperature;humidity
52975;BME280;38839;45.186;5.720;2023-05-11T00:00:15;99090.84;;;13.67;60.94
52975;BME280;38839;45.186;5.720;2023-05-11T00:02:40;99089.09;;;13.67;61.06
52975;BME280;38839;45.186;5.720;2023-05-11T00:05:06;99089.03;;;13.71;61.13
52975;BME280;38839;45.186;5.720;2023-05-11T00:07:31;99092.53;;;13.69;61.08
52975;BME280;38839;45.186;5.720;2023-05-11T00:09:57;99095.13;;;13.73;60.85
52975;BME280;38839;45.186;5.720;2023-05-11T00:12:22;99085.59;;;13.68;61.29
52975;BME280;38839;45.186;5.720;2023-05-11T00:14:48;99082.13;;;13.66;61.70
52975;BME280;38839;45.186;5.720;2023-05-11T00:17:13;99083.06;;;13.64;61.48
52975;BME280;38839;45.186;5.720;2023-05-11T00:19:38;99083.09;;;13.59;61.17
52975;BME280;38839;45.186;5.720;2023-05-11T00:22:04;99077.84;;;13.61;61.58
52975;BME280;38839;45.186;5.720;2023-05-11T00:24:29;99079.69;;;13.56;61.75
52975;BME280;38839;45.186;5.720;2023-05-11T00:26:54;99078.69;;;13.61;61.29
52975;BME280;38839;45.186;5.720;2023-05-11T00:29:20;99077.84;;;13.59;61.77
52975;BME280;38839;45.186;5.720;2023-05-11T00:31:46;99076.97;;;13.62;61.46
52975;BME280;38839;45.186;5.720;2023-05-11T00:34:13;99076.03;;;13.66;61.57
52975;BME280;38839;45.186;5.720;2023-05-11T00:36:39;99076.03;;;13.64;61.55
52975;BME280;38839;45.186;5.720;2023-05-11T00:39:06;99071.66;;;13.65;61.61
52975;BME280;38839;45.186;5.720;2023-05-11T00:41:32;99066.47;;;13.62;61.59
52975;BME280;38839;45.186;5.720;2023-05-11T00:43:58;99065.59;;;13.61;61.52
52975;BME280;38839;45.186;5.720;2023-05-11T00:46:23;99069.97;;;13.62;61.17
52975;BME280;38839;45.186;5.720;2023-05-11T00:48:49;99064.75;;;13.59;61.58
52975;BME280;38839;45.186;5.720;2023-05-11T00:51:14;99056.88;;;13.59;61.31
52975;BME280;38839;45.186;5.720;2023-05-11T00:53:40;99060.34;;;13.63;61.44
52975;BME280;38839;45.186;5.720;2023-05-11T00:56:06;99056.97;;;13.56;61.20
52975;BME280;38839;45.186;5.720;2023-05-11T00:58:31;99053.44;;;13.57;61.17
52975;BME280;38839;45.186;5.720;2023-05-11T01:00:57;99058.78;;;13.51;61.40
52975;BME280;38839;45.186;5.720;2023-05-11T01:03:22;99060.53;;;13.52;61.36
52975;BME280;38839;45.186;5.720;2023-05-11T01:08:47;99053.69;;;13.42;62.75
52975;BME280;38839;45.186;5.720;2023-05-11T01:11:35;99052.03;;;13.38;62.86
52975;BME280;38839;45.186;5.720;2023-05-11T01:17:30;99051.94;;;13.41;63.08
52975;BME280;38839;45.186;5.720;2023-05-11T01:20:03;99056.34;;;13.39;62.64
52975;BME280;38839;45.186;5.720;2023-05-11T01:22:42;99055.47;;;13.40;62.05
52975;BME280;38839;45.186;5.720;2023-05-11T01:25:23;99058.09;;;13.41;61.77
52975;BME280;38839;45.186;5.720;2023-05-11T01:28:24;99057.00;;;13.53;61.17
52975;BME280;38839;45.186;5.720;2023-05-11T01:30:54;99058.97;;;13.39;62.64
52975;BME280;38839;45.186;5.720;2023-05-11T01:33:28;99050.16;;;13.43;62.12
52975;BME280;38839;45.186;5.720;2023-05-11T01:36:02;99052.66;;;13.51;62.11
52975;BME280;38839;45.186;5.720;2023-05-11T01:38:36;99056.00;;;13.60;61.06
52975;BME280;38839;45.186;5.720;2023-05-11T01:41:12;99049.81;;;13.64;60.41
52975;BME280;38839;45.186;5.720;2023-05-11T01:43:39;99050.69;;;13.65;60.62
52975;BME280;38839;45.186;5.720;2023-05-11T01:46:06;99051.66;;;13.59;60.62
52975;BME280;38839;45.186;5.720;2023-05-11T01:48:37;99061.25;;;13.60;60.72
52975;BME280;38839;45.186;5.720;2023-05-11T01:51:03;99055.19;;;13.58;61.12
52975;BME280;38839;45.186;5.720;2023-05-11T01:53:32;99050.84;;;13.56;61.73
52975;BME280;38839;45.186;5.720;2023-05-11T01:55:59;99050.25;;;13.40;62.42
52975;BME280;38839;45.186;5.720;2023-05-11T01:58:27;99060.91;;;13.24;64.01
52975;BME280;38839;45.186;5.720;2023-05-11T02:00:54;99054.09;;;13.14;64.71
52975;BME280;38839;45.186;5.720;2023-05-11T02:03:20;99057.63;;;13.12;64.89
52975;BME280;38839;45.186;5.720;2023-05-11T02:05:48;99057.88;;;12.96;65.59
52975;BME280;38839;45.186;5.720;2023-05-11T02:08:16;99052.75;;;12.85;66.86
52975;BME280;38839;45.186;5.720;2023-05-11T02:10:43;99057.16;;;12.83;66.87
52975;BME280;38839;45.186;5.720;2023-05-11T02:13:10;99061.50;;;12.84;66.89
52975;BME280;38839;45.186;5.720;2023-05-11T02:15:40;99065.13;;;12.74;67.69
52975;BME280;38839;45.186;5.720;2023-05-11T02:18:11;99058.25;;;12.67;67.05
52975;BME280;38839;45.186;5.720;2023-05-11T02:20:42;99059.03;;;12.74;66.56
52975;BME280;38839;45.186;5.720;2023-05-11T02:23:10;99052.63;;;12.95;64.50
52975;BME280;38839;45.186;5.720;2023-05-11T02:25:38;99052.47;;;13.07;63.99
52975;BME280;38839;45.186;5.720;2023-05-11T02:28:04;99050.59;;;13.15;63.39
52975;BME280;38839;45.186;5.720;2023-05-11T02:30:31;99057.50;;;13.19;62.94
52975;BME280;38839;45.186;5.720;2023-05-11T02:32:59;99053.91;;;13.30;62.88
52975;BME280;38839;45.186;5.720;2023-05-11T02:35:32;99044.25;;;13.33;62.59
52975;BME280;38839;45.186;5.720;2023-05-11T02:37:59;99042.47;;;13.35;62.46
52975;BME280;38839;45.186;5.720;2023-05-11T02:40:31;99041.53;;;13.38;62.51
52975;BME280;38839;45.186;5.720;2023-05-11T02:43:08;99035.38;;;13.39;62.67
52975;BME280;38839;45.186;5.720;2023-05-11T02:45:36;99037.81;;;12.94;67.48
52975;BME280;38839;45.186;5.720;2023-05-11T02:48:09;99038.81;;;12.83;68.29
52975;BME280;38839;45.186;5.720;2023-05-11T02:50:38;99039.06;;;12.66;67.96
52975;BME280;38839;45.186;5.720;2023-05-11T02:53:11;99034.81;;;12.59;69.97
52975;BME280;38839;45.186;5.720;2023-05-11T02:55:40;99037.59;;;12.45;71.21
52975;BME280;38839;45.186;5.720;2023-05-11T02:58:06;99026.38;;;12.34;70.97
52975;BME280;38839;45.186;5.720;2023-05-11T03:00:31;99032.47;;;12.36;70.40
52975;BME280;38839;45.186;5.720;2023-05-11T03:02:57;99034.16;;;12.42;69.97
52975;BME280;38839;45.186;5.720;2023-05-11T03:05:23;99030.34;;;12.67;69.15
52975;BME280;38839;45.186;5.720;2023-05-11T03:07:50;99037.97;;;12.83;68.59
52975;BME280;38839;45.186;5.720;2023-05-11T03:10:16;99023.09;;;12.83;68.39
52975;BME280;38839;45.186;5.720;2023-05-11T03:12:42;99021.59;;;12.67;68.68
52975;BME280;38839;45.186;5.720;2023-05-11T03:15:08;99020.66;;;12.73;68.41
52975;BME280;38839;45.186;5.720;2023-05-11T03:17:36;99019.72;;;12.75;68.36
52975;BME280;38839;45.186;5.720;2023-05-11T03:20:05;99023.28;;;12.71;68.22
52975;BME280;38839;45.186;5.720;2023-05-11T03:22:32;99016.41;;;12.65;68.11
52975;BME280;38839;45.186;5.720;2023-05-11T03:24:59;99018.13;;;12.65;68.31
52975;BME280;38839;45.186;5.720;2023-05-11T03:27:27;99011.97;;;12.69;67.79
52975;BME280;38839;45.186;5.720;2023-05-11T03:29:54;99018.06;;;12.71;68.21
52975;BME280;38839;45.186;5.720;2023-05-11T03:32:21;99021.47;;;12.76;67.90
52975;BME280;38839;45.186;5.720;2023-05-11T03:34:46;99007.38;;;12.86;67.78
52975;BME280;38839;45.186;5.720;2023-05-11T03:37:16;99007.28;;;12.94;68.02
52975;BME280;38839;45.186;5.720;2023-05-11T03:39:45;99005.50;;;12.95;67.96
52975;BME280;38839;45.186;5.720;2023-05-11T03:42:12;99011.50;;;13.01;67.70
52975;BME280;38839;45.186;5.720;2023-05-11T03:44:39;99010.78;;;12.92;67.81
52975;BME280;38839;45.186;5.720;2023-05-11T03:47:05;99004.59;;;12.97;67.61
52975;BME280;38839;45.186;5.720;2023-05-11T03:49:36;99000.94;;;13.07;67.37
52975;BME280;38839;45.186;5.720;2023-05-11T03:52:04;99005.06;;;13.22;67.30
52975;BME280;38839;45.186;5.720;2023-05-11T03:54:30;98997.16;;;13.27;66.84
52975;BME280;38839;45.186;5.720;2023-05-11T03:56:56;98998.00;;;13.27;66.52
52975;BME280;38839;45.186;5.720;2023-05-11T03:59:21;98991.84;;;13.28;66.39
52975;BME280;38839;45.186;5.720;2023-05-11T04:01:48;98990.13;;;13.31;66.62
52975;BME280;38839;45.186;5.720;2023-05-11T04:04:17;98988.38;;;13.28;66.59
52975;BME280;38839;45.186;5.720;2023-05-11T04:06:43;98991.91;;;13.27;66.29
52975;BME280;38839;45.186;5.720;2023-05-11T04:09:08;98983.22;;;13.23;66.57
52975;BME280;38839;45.186;5.720;2023-05-11T04:11:37;98984.94;;;13.24;66.36
52975;BME280;38839;45.186;5.720;2023-05-11T04:14:03;98984.94;;;13.24;66.08
52975;BME280;38839;45.186;5.720;2023-05-11T04:16:29;98982.31;;;13.29;65.55
52975;BME280;38839;45.186;5.720;2023-05-11T04:18:54;98991.03;;;13.30;65.26
52975;BME280;38839;45.186;5.720;2023-05-11T04:21:20;98997.09;;;13.28;65.28
52975;BME280;38839;45.186;5.720;2023-05-11T04:23:45;98997.97;;;13.31;65.17
52975;BME280;38839;45.186;5.720;2023-05-11T04:26:10;98989.31;;;13.25;65.67
52975;BME280;38839;45.186;5.720;2023-05-11T04:28:36;98994.75;;;13.13;65.72
52975;BME280;38839;45.186;5.720;2023-05-11T04:31:01;98992.09;;;13.15;66.22
52975;BME280;38839;45.186;5.720;2023-05-11T04:33:27;98993.16;;;13.03;66.58
52975;BME280;38839;45.186;5.720;2023-05-11T04:35:53;98981.09;;;12.93;67.06
52975;BME280;38839;45.186;5.720;2023-05-11T04:38:19;98987.03;;;13.04;66.79
52975;BME280;38839;45.186;5.720;2023-05-11T04:40:45;98993.97;;;13.06;66.51
52975;BME280;38839;45.186;5.720;2023-05-11T04:43:12;98990.44;;;13.11;66.30
52975;BME280;38839;45.186;5.720;2023-05-11T04:45:38;98983.13;;;13.28;65.99
52975;BME280;38839;45.186;5.720;2023-05-11T04:48:04;98983.66;;;13.52;65.19
52975;BME280;38839;45.186;5.720;2023-05-11T04:50:30;98982.75;;;13.53;65.08
52975;BME280;38839;45.186;5.720;2023-05-11T04:52:56;98989.75;;;13.54;64.90
52975;BME280;38839;45.186;5.720;2023-05-11T04:55:21;98984.50;;;13.52;64.58
52975;BME280;38839;45.186;5.720;2023-05-11T04:57:46;98981.81;;;13.55;64.98
52975;BME280;38839;45.186;5.720;2023-05-11T05:00:12;98985.16;;;13.63;64.95
52975;BME280;38839;45.186;5.720;2023-05-11T05:02:37;98986.84;;;13.67;64.72
52975;BME280;38839;45.186;5.720;2023-05-11T05:05:03;99000.13;;;13.60;64.77
52975;BME280;38839;45.186;5.720;2023-05-11T05:07:31;98983.38;;;13.65;64.82
52975;BME280;38839;45.186;5.720;2023-05-11T05:09:56;98991.31;;;13.62;65.11
52975;BME280;38839;45.186;5.720;2023-05-11T05:12:22;98996.59;;;13.61;65.21
52975;BME280;38839;45.186;5.720;2023-05-11T05:14:47;99000.25;;;13.51;65.91
52975;BME280;38839;45.186;5.720;2023-05-11T05:17:12;98995.22;;;13.40;66.40
52975;BME280;38839;45.186;5.720;2023-05-11T05:19:38;98992.72;;;13.31;66.52
52975;BME280;38839;45.186;5.720;2023-05-11T05:22:03;98999.75;;;13.27;66.85
52975;BME280;38839;45.186;5.720;2023-05-11T05:24:29;99006.00;;;13.18;67.37
52975;BME280;38839;45.186;5.720;2023-05-11T05:26:55;98998.09;;;13.21;67.00
52975;BME280;38839;45.186;5.720;2023-05-11T05:29:20;98999.66;;;13.35;66.93
52975;BME280;38839;45.186;5.720;2023-05-11T05:31:45;99001.44;;;13.33;66.62
52975;BME280;38839;45.186;5.720;2023-05-11T05:34:11;98999.78;;;13.25;67.04
52975;BME280;38839;45.186;5.720;2023-05-11T05:36:36;98997.97;;;13.31;66.58
52975;BME280;38839;45.186;5.720;2023-05-11T05:39:02;99006.84;;;13.20;67.12
52975;BME280;38839;45.186;5.720;2023-05-11T05:41:32;99009.34;;;13.28;66.70
52975;BME280;38839;45.186;5.720;2023-05-11T05:43:57;99001.41;;;13.36;66.32
52975;BME280;38839;45.186;5.720;2023-05-11T05:46:23;99002.50;;;13.19;67.23
52975;BME280;38839;45.186;5.720;2023-05-11T05:48:48;99002.16;;;13.41;66.90
52975;BME280;38839;45.186;5.720;2023-05-11T05:51:14;98995.63;;;13.66;65.95
52975;BME280;38839;45.186;5.720;2023-05-11T05:53:40;98999.06;;;14.15;64.59
52975;BME280;38839;45.186;5.720;2023-05-11T05:56:06;98993.41;;;14.76;62.73
52975;BME280;38839;45.186;5.720;2023-05-11T05:58:31;98994.38;;;15.09;61.36
52975;BME280;38839;45.186;5.720;2023-05-11T06:00:57;98997.38;;;14.95;61.45
52975;BME280;38839;45.186;5.720;2023-05-11T06:03:22;98997.94;;;15.08;61.14
52975;BME280;38839;45.186;5.720;2023-05-11T06:05:48;98988.97;;;15.15;59.79
52975;BME280;38839;45.186;5.720;2023-05-11T06:08:13;98994.19;;;15.18;59.74
52975;BME280;38839;45.186;5.720;2023-05-11T06:10:39;98987.84;;;15.61;58.95
52975;BME280;38839;45.186;5.720;2023-05-11T06:13:05;98984.47;;;15.89;58.18
52975;BME280;38839;45.186;5.720;2023-05-11T06:15:31;98983.25;;;16.02;57.19
52975;BME280;38839;45.186;5.720;2023-05-11T06:17:56;98977.81;;;16.08;57.20
52975;BME280;38839;45.186;5.720;2023-05-11T06:20:22;98977.59;;;16.16;56.62
52975;BME280;38839;45.186;5.720;2023-05-11T06:22:48;98983.91;;;16.11;56.87
52975;BME280;38839;45.186;5.720;2023-05-11T06:25:13;98980.03;;;15.91;57.09
52975;BME280;38839;45.186;5.720;2023-05-11T06:27:39;98984.22;;;16.00;57.17
52975;BME280;38839;45.186;5.720;2023-05-11T06:30:05;98975.25;;;16.95;54.48
52975;BME280;38839;45.186;5.720;2023-05-11T06:32:32;98972.81;;;16.59;55.19
52975;BME280;38839;45.186;5.720;2023-05-11T06:34:58;98976.53;;;16.81;54.94
52975;BME280;38839;45.186;5.720;2023-05-11T06:37:23;98973.44;;;16.67;54.85
52975;BME280;38839;45.186;5.720;2023-05-11T06:39:49;98966.06;;;16.50;55.58
52975;BME280;38839;45.186;5.720;2023-05-11T06:42:14;98962.97;;;16.06;56.25
52975;BME280;38839;45.186;5.720;2023-05-11T06:44:40;98969.69;;;15.85;56.68
52975;BME280;38839;45.186;5.720;2023-05-11T06:47:08;98978.84;;;15.70;57.13
52975;BME280;38839;45.186;5.720;2023-05-11T06:49:34;98968.88;;;15.83;56.88
52975;BME280;38839;45.186;5.720;2023-05-11T06:51:59;98974.09;;;15.84;57.00
52975;BME280;38839;45.186;5.720;2023-05-11T06:54:25;98969.09;;;15.75;57.17
52975;BME280;38839;45.186;5.720;2023-05-11T06:56:50;98973.50;;;16.06;56.50
52975;BME280;38839;45.186;5.720;2023-05-11T06:59:15;98967.66;;;16.56;55.47
52975;BME280;38839;45.186;5.720;2023-05-11T07:01:41;98971.59;;;17.27;53.14
52975;BME280;38839;45.186;5.720;2023-05-11T07:04:07;98960.94;;;18.53;50.66
52975;BME280;38839;45.186;5.720;2023-05-11T07:06:32;98954.06;;;19.98;46.81
52975;BME280;38839;45.186;5.720;2023-05-11T07:08:58;98962.66;;;20.43;45.56
52975;BME280;38839;45.186;5.720;2023-05-11T07:11:24;98965.63;;;20.16;45.91
52975;BME280;38839;45.186;5.720;2023-05-11T07:13:50;98969.44;;;19.90;46.76
52975;BME280;38839;45.186;5.720;2023-05-11T07:16:15;98965.91;;;19.48;47.23
52975;BME280;38839;45.186;5.720;2023-05-11T07:18:41;98959.75;;;19.68;47.12
52975;BME280;38839;45.186;5.720;2023-05-11T07:21:06;98964.66;;;19.57;46.75
52975;BME280;38839;45.186;5.720;2023-05-11T07:23:31;98964.38;;;19.43;47.07
52975;BME280;38839;45.186;5.720;2023-05-11T07:25:57;98961.03;;;19.80;46.37
52975;BME280;38839;45.186;5.720;2023-05-11T07:28:23;98963.03;;;20.15;45.01
52975;BME280;38839;45.186;5.720;2023-05-11T07:30:48;98956.00;;;19.95;45.18
52975;BME280;38839;45.186;5.720;2023-05-11T07:33:14;98956.47;;;20.23;44.89
52975;BME280;38839;45.186;5.720;2023-05-11T07:35:39;98956.69;;;20.57;44.26
52975;BME280;38839;45.186;5.720;2023-05-11T07:38:04;98954.38;;;21.23;42.78
52975;BME280;38839;45.186;5.720;2023-05-11T07:40:32;98954.03;;;21.12;42.70
52975;BME280;38839;45.186;5.720;2023-05-11T07:42:57;98954.63;;;20.82;43.38
52975;BME280;38839;45.186;5.720;2023-05-11T07:45:23;98959.88;;;19.45;46.38
52975;BME280;38839;45.186;5.720;2023-05-11T07:47:48;98955.63;;;18.54;48.65
52975;BME280;38839;45.186;5.720;2023-05-11T07:50:14;98948.50;;;18.09;50.17
52975;BME280;38839;45.186;5.720;2023-05-11T07:52:39;98946.16;;;18.01;50.32
52975;BME280;38839;45.186;5.720;2023-05-11T07:55:05;98945.06;;;18.07;50.18
52975;BME280;38839;45.186;5.720;2023-05-11T07:57:30;98941.00;;;17.72;50.74
52975;BME280;38839;45.186;5.720;2023-05-11T07:59:56;98944.81;;;17.64;51.31
52975;BME280;38839;45.186;5.720;2023-05-11T08:02:21;98931.97;;;17.79;50.99
52975;BME280;38839;45.186;5.720;2023-05-11T08:04:46;98940.19;;;18.20;50.15
52975;BME280;38839;45.186;5.720;2023-05-11T08:07:12;98928.13;;;17.89;50.85
52975;BME280;38839;45.186;5.720;2023-05-11T08:09:37;98930.25;;;17.78;51.49
52975;BME280;38839;45.186;5.720;2023-05-11T08:12:03;98929.81;;;17.65;51.23
52975;BME280;38839;45.186;5.720;2023-05-11T08:14:28;98926.16;;;17.94;51.03
52975;BME280;38839;45.186;5.720;2023-05-11T08:16:54;98936.16;;;18.09;50.85
52975;BME280;38839;45.186;5.720;2023-05-11T08:19:19;98925.00;;;18.25;50.57
52975;BME280;38839;45.186;5.720;2023-05-11T08:21:45;98925.59;;;18.33;50.44
52975;BME280;38839;45.186;5.720;2023-05-11T08:24:11;98933.72;;;18.50;50.03
52975;BME280;38839;45.186;5.720;2023-05-11T08:26:36;98921.81;;;18.40;50.17
52975;BME280;38839;45.186;5.720;2023-05-11T08:29:02;98921.91;;;18.83;49.65
52975;BME280;38839;45.186;5.720;2023-05-11T08:31:28;98917.78;;;19.40;48.02
52975;BME280;38839;45.186;5.720;2023-05-11T08:33:54;98911.47;;;19.63;47.58
52975;BME280;38839;45.186;5.720;2023-05-11T08:36:19;98910.72;;;20.20;45.89
52975;BME280;38839;45.186;5.720;2023-05-11T08:38:45;98916.66;;;20.44;45.07
52975;BME280;38839;45.186;5.720;2023-05-11T08:41:11;98901.91;;;20.38;45.18
52975;BME280;38839;45.186;5.720;2023-05-11T08:43:38;98902.91;;;20.36;44.91
52975;BME280;38839;45.186;5.720;2023-05-11T08:46:05;98895.31;;;20.66;44.60
52975;BME280;38839;45.186;5.720;2023-05-11T08:48:34;98897.59;;;20.55;44.61
52975;BME280;38839;45.186;5.720;2023-05-11T08:51:00;98902.09;;;21.08;43.64
52975;BME280;38839;45.186;5.720;2023-05-11T08:53:26;98885.88;;;20.60;44.31
52975;BME280;38839;45.186;5.720;2023-05-11T08:55:54;98896.88;;;21.06;43.66
52975;BME280;38839;45.186;5.720;2023-05-11T08:58:22;98884.38;;;21.26;42.71
52975;BME280;38839;45.186;5.720;2023-05-11T09:00:48;98875.16;;;21.68;42.17
52975;BME280;38839;45.186;5.720;2023-05-11T09:03:17;98875.56;;;20.90;42.90
52975;BME280;38839;45.186;5.720;2023-05-11T09:05:47;98887.59;;;20.61;43.47
52975;BME280;38839;45.186;5.720;2023-05-11T09:08:14;98881.06;;;20.49;44.00
52975;BME280;38839;45.186;5.720;2023-05-11T09:10:42;98876.41;;;20.36;44.36
52975;BME280;38839;45.186;5.720;2023-05-11T09:13:08;98863.59;;;20.07;45.20
52975;BME280;38839;45.186;5.720;2023-05-11T09:15:34;98870.13;;;20.19;44.85
52975;BME280;38839;45.186;5.720;2023-05-11T09:17:59;98876.44;;;20.17;44.65
52975;BME280;38839;45.186;5.720;2023-05-11T09:20:29;98866.47;;;20.03;44.88
52975;BME280;38839;45.186;5.720;2023-05-11T09:22:56;98872.06;;;20.16;44.48
52975;BME280;38839;45.186;5.720;2023-05-11T09:25:23;98870.13;;;20.00;44.96
52975;BME280;38839;45.186;5.720;2023-05-11T09:27:48;98873.13;;;19.93;44.90
52975;BME280;38839;45.186;5.720;2023-05-11T09:30:16;98858.75;;;19.79;44.76
52975;BME280;38839;45.186;5.720;2023-05-11T09:35:28;98865.41;;;19.88;44.65
52975;BME280;38839;45.186;5.720;2023-05-11T09:38:09;98857.41;;;19.89;44.40
52975;BME280;38839;45.186;5.720;2023-05-11T09:40:39;98856.69;;;19.86;44.70
52975;BME280;38839;45.186;5.720;2023-05-11T09:43:18;98863.25;;;19.96;44.90
52975;BME280;38839;45.186;5.720;2023-05-11T09:45:46;98842.59;;;19.65;44.57
52975;BME280;38839;45.186;5.720;2023-05-11T09:50:40;98844.41;;;19.23;45.53
52975;BME280;38839;45.186;5.720;2023-05-11T09:53:06;98842.28;;;19.52;45.01
52975;BME280;38839;45.186;5.720;2023-05-11T09:55:32;98844.22;;;19.88;44.85
52975;BME280;38839;45.186;5.720;2023-05-11T09:57:58;98854.81;;;19.88;44.88
52975;BME280;38839;45.186;5.720;2023-05-11T10:00:24;98843.06;;;19.75;44.65
52975;BME280;38839;45.186;5.720;2023-05-11T10:05:29;98835.78;;;19.80;44.55
52975;BME280;38839;45.186;5.720;2023-05-11T10:08:03;98831.34;;;19.60;45.35
52975;BME280;38839;45.186;5.720;2023-05-11T10:10:31;98838.84;;;19.50;45.03
52975;BME280;38839;45.186;5.720;2023-05-11T10:12:58;98827.03;;;19.38;45.56
52975;BME280;38839;45.186;5.720;2023-05-11T10:15:26;98823.97;;;19.47;45.36
52975;BME280;38839;45.186;5.720;2023-05-11T10:17:56;98820.19;;;19.53;44.69
52975;BME280;38839;45.186;5.720;2023-05-11T10:20:25;98828.16;;;19.12;45.01
52975;BME280;38839;45.186;5.720;2023-05-11T10:22:53;98820.63;;;19.03;45.11
52975;BME280;38839;45.186;5.720;2023-05-11T10:25:25;98824.06;;;19.05;45.39
52975;BME280;38839;45.186;5.720;2023-05-11T10:27:51;98809.50;;;18.95;45.64
52975;BME280;38839;45.186;5.720;2023-05-11T10:30:17;98810.25;;;18.98;45.39
52975;BME280;38839;45.186;5.720;2023-05-11T10:32:46;98821.13;;;18.90;45.52
52975;BME280;38839;45.186;5.720;2023-05-11T10:35:12;98819.03;;;19.19;44.91
52975;BME280;38839;45.186;5.720;2023-05-11T10:37:39;98811.09;;;19.19;44.84
52975;BME280;38839;45.186;5.720;2023-05-11T10:40:06;98813.88;;;19.16;45.31
52975;BME280;38839;45.186;5.720;2023-05-11T10:43:17;98815.34;;;19.03;45.21
52975;BME280;38839;45.186;5.720;2023-05-11T10:59:02;98793.56;;;19.56;43.22
52975;BME280;38839;45.186;5.720;2023-05-11T11:01:36;98787.69;;;19.30;43.37
52975;BME280;38839;45.186;5.720;2023-05-11T11:04:05;98782.47;;;19.29;43.30
52975;BME280;38839;45.186;5.720;2023-05-11T11:06:36;98775.63;;;19.04;44.14
52975;BME280;38839;45.186;5.720;2023-05-11T11:09:13;98773.13;;;18.59;45.91
52975;BME280;38839;45.186;5.720;2023-05-11T11:11:44;98771.13;;;18.86;45.33
52975;BME280;38839;45.186;5.720;2023-05-11T11:14:11;98765.38;;;18.97;44.89
52975;BME280;38839;45.186;5.720;2023-05-11T11:16:38;98760.84;;;18.78;45.34
52975;BME280;38839;45.186;5.720;2023-05-11T11:21:54;98756.69;;;18.73;46.43
52975;BME280;38839;45.186;5.720;2023-05-11T11:27:01;98753.41;;;18.45;45.24
52975;BME280;38839;45.186;5.720;2023-05-11T11:29:28;98755.34;;;18.42;44.25
52975;BME280;38839;45.186;5.720;2023-05-11T11:31:54;98760.44;;;18.02;44.42
52975;BME280;38839;45.186;5.720;2023-05-11T11:39:22;98736.03;;;17.97;44.50
52975;BME280;38839;45.186;5.720;2023-05-11T11:42:00;98740.69;;;18.13;44.11
52975;BME280;38839;45.186;5.720;2023-05-11T11:44:26;98735.00;;;18.44;44.05
52975;BME280;38839;45.186;5.720;2023-05-11T11:49:37;98736.78;;;18.64;43.88
52975;BME280;38839;45.186;5.720;2023-05-11T11:52:04;98720.94;;;18.64;44.34
52975;BME280;38839;45.186;5.720;2023-05-11T11:54:43;98721.88;;;18.63;44.05
52975;BME280;38839;45.186;5.720;2023-05-11T11:57:41;98706.50;;;18.52;44.50
52975;BME280;38839;45.186;5.720;2023-05-11T12:00:08;98704.47;;;18.79;44.76
52975;BME280;38839;45.186;5.720;2023-05-11T12:02:41;98708.94;;;18.57;45.91
52975;BME280;38839;45.186;5.720;2023-05-11T12:05:13;98709.81;;;18.35;46.37
52975;BME280;38839;45.186;5.720;2023-05-11T12:07:43;98719.31;;;18.19;47.04
52975;BME280;38839;45.186;5.720;2023-05-11T12:10:12;98718.84;;;18.09;48.06
52975;BME280;38839;45.186;5.720;2023-05-11T12:12:38;98718.84;;;17.87;48.90
52975;BME280;38839;45.186;5.720;2023-05-11T12:15:05;98704.22;;;18.00;49.68
52975;BME280;38839;45.186;5.720;2023-05-11T12:17:31;98707.00;;;17.97;49.48
52975;BME280;38839;45.186;5.720;2023-05-11T12:20:15;98693.66;;;17.78;48.96
52975;BME280;38839;45.186;5.720;2023-05-11T12:22:41;98706.06;;;17.76;48.57
52975;BME280;38839;45.186;5.720;2023-05-11T12:25:08;98697.75;;;17.87;47.18
52975;BME280;38839;45.186;5.720;2023-05-11T12:27:49;98701.50;;;18.24;46.24
52975;BME280;38839;45.186;5.720;2023-05-11T12:30:22;98696.44;;;18.40;44.72
52975;BME280;38839;45.186;5.720;2023-05-11T12:32:48;98683.94;;;18.64;44.18
52975;BME280;38839;45.186;5.720;2023-05-11T12:35:13;98693.34;;;18.92;43.43
52975;BME280;38839;45.186;5.720;2023-05-11T12:37:41;98684.72;;;19.07;42.81
52975;BME280;38839;45.186;5.720;2023-05-11T12:40:10;98682.97;;;19.26;42.38
52975;BME280;38839;45.186;5.720;2023-05-11T12:42:35;98678.53;;;19.27;42.18
52975;BME280;38839;45.186;5.720;2023-05-11T12:45:02;98681.22;;;19.25;42.35
52975;BME280;38839;45.186;5.720;2023-05-11T12:47:28;98676.16;;;19.40;42.32
52975;BME280;38839;45.186;5.720;2023-05-11T12:49:54;98662.09;;;19.39;41.74
52975;BME280;38839;45.186;5.720;2023-05-11T12:52:22;98673.03;;;19.32;41.88
52975;BME280;38839;45.186;5.720;2023-05-11T12:54:48;98668.09;;;19.43;42.71
52975;BME280;38839;45.186;5.720;2023-05-11T12:57:23;98672.50;;;19.23;44.33
52975;BME280;38839;45.186;5.720;2023-05-11T13:00:04;98677.22;;;18.98;44.46
52975;BME280;38839;45.186;5.720;2023-05-11T13:02:31;98672.59;;;18.82;44.42
52975;BME280;38839;45.186;5.720;2023-05-11T13:04:56;98675.66;;;18.94;44.12
52975;BME280;38839;45.186;5.720;2023-05-11T13:07:24;98670.88;;;19.02;44.10
52975;BME280;38839;45.186;5.720;2023-05-11T13:09:57;98661.81;;;19.07;43.69
52975;BME280;38839;45.186;5.720;2023-05-11T13:12:23;98667.38;;;19.20;43.73
52975;BME280;38839;45.186;5.720;2023-05-11T13:15:11;98662.09;;;19.20;43.64
52975;BME280;38839;45.186;5.720;2023-05-11T13:17:39;98664.72;;;19.01;44.13
52975;BME280;38839;45.186;5.720;2023-05-11T13:20:33;98663.00;;;19.00;43.86
52975;BME280;38839;45.186;5.720;2023-05-11T13:23:11;98659.78;;;18.94;44.40
52975;BME280;38839;45.186;5.720;2023-05-11T13:28:13;98645.78;;;19.29;43.61
52975;BME280;38839;45.186;5.720;2023-05-11T13:30:39;98643.91;;;19.69;43.21
52975;BME280;38839;45.186;5.720;2023-05-11T13:33:04;98654.81;;;19.44;42.82
52975;BME280;38839;45.186;5.720;2023-05-11T13:35:30;98649.13;;;19.52;42.59
52975;BME280;38839;45.186;5.720;2023-05-11T13:37:55;98650.06;;;19.51;42.49
52975;BME280;38839;45.186;5.720;2023-05-11T13:40:21;98638.34;;;19.76;42.04
52975;BME280;38839;45.186;5.720;2023-05-11T13:42:47;98647.56;;;19.48;42.57
52975;BME280;38839;45.186;5.720;2023-05-11T13:45:12;98652.53;;;19.37;42.76